Ilyas Araz — TCAS9 — position and weather

sailwx.info

Track history (hours):
 
Tides and Currents Weather Stations Pressure Air Temp Water Temp Dewpoint Dewpoint Depression Visibility Wind Speed Wind Dir Waves Ship Positions

Ilyas Araz

Last reported at 2017-Nov-18 11:57 UTC. Time now 2017-Dec-14 10:18 UTC.
Position N 40°54' E 029°08'.
Warning: this ship's position is 25 days out of date.

Length 64 m; draft 5.4 m.

Type: Cargo ship. MMSI: 271002108.

Date/timePositionNaut miles runAvg speedWind from/ knotsBaromVisibWave heightAir tempDewpointWater temp
2017-Nov-18 11:57N 40°54' E 029°08'3 7.2
2017-Nov-18 11:30N 40°53' E 029°12'0 0.2
2017-Nov-18 10:59N 40°53' E 029°12'0 0.0
2017-Nov-18 10:29N 40°53' E 029°12'0 0.0
2017-Nov-18 09:17N 40°53' E 029°12'0 0.0
2017-Nov-18 08:59N 40°53' E 029°12'0 0.1
2017-Nov-18 08:05N 40°53' E 029°12'0 0.0
2017-Nov-18 07:47N 40°53' E 029°12'0 0.0
2017-Nov-18 07:17N 40°53' E 029°12'0 0.0
2017-Nov-18 06:47N 40°53' E 029°12'0 0.0
2017-Nov-18 06:23N 40°53' E 029°12'0 0.0
2017-Nov-18 05:59N 40°53' E 029°12'0 0.0
2017-Nov-18 05:29N 40°53' E 029°12'0 0.0
2017-Nov-18 04:59N 40°53' E 029°12'0 0.0
2017-Nov-18 04:23N 40°53' E 029°12'0 0.0
2017-Nov-18 03:59N 40°53' E 029°12'0 0.0
2017-Nov-18 03:29N 40°53' E 029°12'1 2.9
2017-Nov-18 02:58N 40°52' E 029°11'4 7.6
2017-Nov-18 02:30N 40°50' E 029°07'  
2017-Nov-15 10:49N 40°50' E 029°09'4 8.0
2017-Nov-15 10:21N 40°52' E 029°12'0 1.3
2017-Nov-15 10:00N 40°53' E 029°12'  
Track history (hours):
 
Tides and Currents Weather Stations Pressure Air Temp Water Temp Dewpoint Dewpoint Depression Visibility Wind Speed Wind Dir Waves Ship Positions

Ilyas Araz

Last reported at 2017-Nov-18 11:57 UTC. Time now 2017-Dec-14 10:18 UTC.
Position N 40°54' E 029°08'.
Warning: this ship's position is 25 days out of date.

Length 64 m; draft 5.4 m.

Type: Cargo ship. MMSI: 271002108.

Date/timePositionNaut miles runAvg speedWind from/ knotsBaromVisibWave heightAir tempDewpointWater temp
2017-Nov-18 11:57N 40°54' E 029°08'3 7.2
2017-Nov-18 11:30N 40°53' E 029°12'0 0.2
2017-Nov-18 10:59N 40°53' E 029°12'0 0.0
2017-Nov-18 10:29N 40°53' E 029°12'0 0.0
2017-Nov-18 09:17N 40°53' E 029°12'0 0.0
2017-Nov-18 08:59N 40°53' E 029°12'0 0.1
2017-Nov-18 08:05N 40°53' E 029°12'0 0.0
2017-Nov-18 07:47N 40°53' E 029°12'0 0.0
2017-Nov-18 07:17N 40°53' E 029°12'0 0.0
2017-Nov-18 06:47N 40°53' E 029°12'0 0.0
2017-Nov-18 06:23N 40°53' E 029°12'0 0.0
2017-Nov-18 05:59N 40°53' E 029°12'0 0.0
2017-Nov-18 05:29N 40°53' E 029°12'0 0.0
2017-Nov-18 04:59N 40°53' E 029°12'0 0.0
2017-Nov-18 04:23N 40°53' E 029°12'0 0.0
2017-Nov-18 03:59N 40°53' E 029°12'0 0.0
2017-Nov-18 03:29N 40°53' E 029°12'1 2.9
2017-Nov-18 02:58N 40°52' E 029°11'4 7.6
2017-Nov-18 02:30N 40°50' E 029°07'  
2017-Nov-15 10:49N 40°50' E 029°09'4 8.0
2017-Nov-15 10:21N 40°52' E 029°12'0 1.3
2017-Nov-15 10:00N 40°53' E 029°12'  

Dump ship's entire track history